Time;durP1;ratioP1;P1;durP2;ratioP2;P2;SDS_P1;SDS_P2;PMS_P1;PMS_P2;Temp;Humidity;BMP_temperature;BMP_pressure;BME280_temperature;BME280_humidity;BME280_pressure;Samples;Min_cycle;Max_cycle;Signal;HPM_P1;HPM_P2
2022/08/12 00:44:29;;;;;;;12.23;6.50;;;15.70;33.60;;;;;;6229866;23;20478;-83
2022/08/12 00:46:59;;;;;;;9.90;6.70;;;15.70;32.80;;;;;;6226032;23;20510;-83
2022/08/12 00:49:29;;;;;;;10.40;6.93;;;15.70;32.80;;;;;;6228692;23;20419;-83
2022/08/12 00:52:08;;;;;;;9.30;7.23;;;15.50;33.10;;;;;;6228607;23;20419;-83
2022/08/12 00:54:37;;;;;;;10.50;7.27;;;15.50;34.30;;;;;;6241385;23;20435;-83
2022/08/12 00:57:06;;;;;;;9.83;7.57;;;15.50;33.20;;;;;;6230714;23;20411;-83
2022/08/12 00:59:35;;;;;;;12.60;7.13;;;15.40;34.00;;;;;;6229359;23;20902;-83
2022/08/12 01:02:05;;;;;;;10.00;7.67;;;15.40;32.10;;;;;;6230256;23;20412;-84
2022/08/12 01:12:50;;;;;;;13.03;7.93;;;15.30;37.40;;;;;;6238651;23;20423;-83
2022/08/12 01:15:18;;;;;;;9.03;7.37;;;15.30;37.90;;;;;;6228002;23;20411;-83
2022/08/12 01:17:46;;;;;;;11.03;7.10;;;15.30;39.00;;;;;;6229296;23;20488;-83
2022/08/12 01:20:20;;;;;;;11.40;8.50;;;15.30;40.00;;;;;;6229927;23;20418;-83
2022/08/12 01:23:18;;;;;;;10.70;7.90;;;15.20;39.10;;;;;;6229348;23;20760;-83
2022/08/12 01:25:49;;;;;;;14.03;7.13;;;15.10;37.90;;;;;;6216317;23;20467;-83
2022/08/12 01:28:17;;;;;;;13.40;7.80;;;15.20;37.40;;;;;;6228309;23;20396;-83
2022/08/12 01:30:44;;;;;;;11.00;7.33;;;15.10;36.50;;;;;;6229139;23;20443;-83
2022/08/12 01:33:16;;;;;;;10.87;7.10;;;15.10;37.30;;;;;;6228765;23;20436;-83
2022/08/12 01:35:48;;;;;;;11.30;8.13;;;15.10;37.00;;;;;;6229865;23;20404;-83
2022/08/12 01:38:20;;;;;;;9.60;6.90;;;15.10;38.50;;;;;;6228222;23;20407;-83
2022/08/12 01:40:51;;;;;;;14.80;7.17;;;15.10;38.10;;;;;;6236108;23;20403;-83
2022/08/12 01:43:20;;;;;;;10.00;6.60;;;15.10;38.40;;;;;;6226468;23;20431;-83
2022/08/12 01:46:00;;;;;;;10.93;7.80;;;15.10;37.60;;;;;;6226215;23;20408;-83
2022/08/12 01:48:39;;;;;;;12.27;7.83;;;14.90;39.60;;;;;;6224620;23;20703;-83
2022/08/12 01:51:19;;;;;;;16.43;8.50;;;14.90;38.90;;;;;;6226434;23;20470;-83
2022/08/12 01:53:57;;;;;;;16.53;9.37;;;14.90;40.30;;;;;;6227065;23;20432;-83
2022/08/12 01:56:29;;;;;;;11.40;8.27;;;14.90;41.30;;;;;;6229604;23;20399;-83
2022/08/12 02:01:50;;;;;;;10.33;8.00;;;14.70;42.40;;;;;;6228237;23;20379;-83
2022/08/12 02:13:22;;;;;;;10.17;7.60;;;14.60;44.20;;;;;;6229351;23;20757;-83
2022/08/12 02:15:56;;;;;;;10.47;7.00;;;14.70;42.40;;;;;;6230066;23;20400;-84
2022/08/12 02:18:33;;;;;;;10.57;7.10;;;14.70;42.40;;;;;;6229037;23;20420;-83
2022/08/12 02:21:04;;;;;;;10.17;6.93;;;14.50;42.60;;;;;;6230628;23;20615;-83
2022/08/12 02:23:33;;;;;;;12.53;7.83;;;14.60;42.30;;;;;;6229753;23;20997;-83
2022/08/12 02:26:05;;;;;;;9.97;6.80;;;14.50;41.90;;;;;;6229714;23;20442;-83
2022/08/12 02:28:34;;;;;;;9.33;6.50;;;14.50;41.90;;;;;;6229938;23;20897;-83
2022/08/12 02:31:04;;;;;;;10.43;8.00;;;14.50;41.20;;;;;;6229724;23;20436;-83
2022/08/12 02:33:31;;;;;;;10.97;7.43;;;14.40;41.00;;;;;;6228851;23;20910;-83
2022/08/12 02:36:00;;;;;;;8.23;7.20;;;14.40;42.50;;;;;;6228190;23;20415;-83
2022/08/12 02:38:29;;;;;;;10.70;8.60;;;14.40;43.60;;;;;;6228705;23;20412;-83
2022/08/12 02:40:58;;;;;;;11.90;7.23;;;14.30;42.10;;;;;;6227272;23;20415;-83
2022/08/12 02:43:40;;;;;;;11.60;8.40;;;14.30;40.80;;;;;;6225768;23;20429;-83
2022/08/12 02:46:10;;;;;;;9.97;8.23;;;14.40;41.90;;;;;;6226509;23;20392;-83
2022/08/12 02:48:44;;;;;;;10.37;7.50;;;14.40;42.80;;;;;;6228687;23;20396;-83
2022/08/12 02:51:16;;;;;;;10.83;8.03;;;14.40;42.80;;;;;;6228246;23;20450;-83
2022/08/12 02:53:44;;;;;;;10.53;8.50;;;14.40;43.20;;;;;;6225990;23;20467;-83
2022/08/12 02:56:12;;;;;;;14.27;9.27;;;14.30;43.30;;;;;;6227736;23;20450;-83
2022/08/12 02:58:40;;;;;;;13.50;9.50;;;14.10;45.80;;;;;;6227322;23;20416;-83
2022/08/12 03:01:09;;;;;;;12.70;10.10;;;14.10;47.70;;;;;;6226988;23;20408;-83
2022/08/12 03:03:38;;;;;;;12.47;10.10;;;14.10;48.90;;;;;;6227161;23;20432;-83
2022/08/12 03:06:08;;;;;;;15.97;10.63;;;14.10;50.40;;;;;;6227404;23;20416;-83
2022/08/12 03:08:42;;;;;;;13.50;11.13;;;14.10;51.10;;;;;;6226204;23;20412;-83
2022/08/12 03:11:16;;;;;;;13.63;11.07;;;14.10;51.50;;;;;;6227434;23;20424;-83
2022/08/12 03:13:46;;;;;;;12.53;10.40;;;14.10;52.10;;;;;;6227120;23;20432;-83
2022/08/12 03:16:14;;;;;;;12.87;9.40;;;14.10;52.30;;;;;;6227228;23;20878;-83
2022/08/12 03:18:42;;;;;;;14.67;11.13;;;14.10;52.00;;;;;;6228624;23;20834;-83
2022/08/12 03:21:12;;;;;;;15.27;11.00;;;14.00;51.60;;;;;;6226661;23;20412;-83
2022/08/12 03:23:41;;;;;;;13.53;9.93;;;14.00;52.20;;;;;;6228350;23;20464;-83
2022/08/12 03:26:08;;;;;;;11.70;9.53;;;14.10;52.20;;;;;;6228855;23;20419;-83
2022/08/12 03:28:52;;;;;;;11.03;9.00;;;14.10;52.40;;;;;;6228895;23;20419;-83
2022/08/12 03:31:23;;;;;;;11.10;9.20;;;14.00;51.70;;;;;;6227995;23;20424;-83
2022/08/12 03:33:51;;;;;;;10.20;8.50;;;14.00;50.40;;;;;;6233979;23;20463;-83
2022/08/12 03:36:21;;;;;;;16.13;9.47;;;14.00;48.30;;;;;;6242543;23;20420;-83
2022/08/12 03:39:14;;;;;;;13.47;10.57;;;14.00;49.30;;;;;;6233153;23;20419;-83
2022/08/12 03:41:42;;;;;;;16.67;10.80;;;14.00;51.40;;;;;;6233466;23;20443;-83
2022/08/12 04:00:51;;;;;;;14.20;11.23;;;13.80;53.50;;;;;;6242508;23;20392;-83
2022/08/12 04:06:08;;;;;;;25.67;11.10;;;13.70;53.70;;;;;;6233478;23;20388;-83
2022/08/12 04:08:35;;;;;;;13.90;10.80;;;13.80;55.90;;;;;;6233055;23;20419;-83
2022/08/12 04:13:47;;;;;;;16.83;10.20;;;13.80;51.30;;;;;;6243055;23;20455;-84
2022/08/12 04:16:16;;;;;;;11.27;10.07;;;13.80;53.00;;;;;;6232853;23;20479;-83
2022/08/12 04:18:44;;;;;;;14.30;11.20;;;13.80;51.60;;;;;;6232490;23;20427;-83
2022/08/12 04:21:11;;;;;;;16.43;10.37;;;13.80;52.70;;;;;;6232828;23;20407;-84
2022/08/12 04:23:41;;;;;;;15.73;10.70;;;13.80;53.30;;;;;;6232929;23;20438;-84
2022/08/12 04:26:09;;;;;;;16.70;11.60;;;13.80;53.20;;;;;;6232978;23;20412;-84
2022/08/12 04:28:38;;;;;;;13.33;10.47;;;13.90;54.60;;;;;;6232516;23;20414;-83
2022/08/12 04:31:05;;;;;;;13.70;8.93;;;13.80;51.10;;;;;;6224413;23;20443;-82
2022/08/12 04:33:32;;;;;;;13.63;9.83;;;13.80;50.10;;;;;;6222103;23;20427;-81
2022/08/12 04:36:01;;;;;;;11.30;9.30;;;13.80;50.40;;;;;;6221668;23;20386;-83
2022/08/12 04:38:30;;;;;;;15.10;11.80;;;13.70;51.80;;;;;;6222018;23;20723;-82
2022/08/12 04:40:57;;;;;;;16.47;11.77;;;13.70;51.30;;;;;;6222107;23;20755;-83
2022/08/12 04:43:24;;;;;;;14.90;11.00;;;13.80;53.60;;;;;;6232720;23;20424;-82
2022/08/12 04:45:51;;;;;;;13.67;10.70;;;13.70;53.80;;;;;;6222448;23;20390;-82
2022/08/12 04:48:18;;;;;;;12.47;10.70;;;13.80;53.70;;;;;;6223096;23;20769;-83
2022/08/12 04:50:45;;;;;;;12.27;10.97;;;13.80;53.10;;;;;;6224103;23;20419;-83
2022/08/12 04:53:14;;;;;;;13.80;10.70;;;13.90;54.00;;;;;;6225561;23;20438;-82
2022/08/12 04:55:44;;;;;;;16.30;10.67;;;14.00;53.20;;;;;;6225745;23;20414;-83
2022/08/12 04:58:11;;;;;;;12.87;10.20;;;14.00;52.80;;;;;;6223251;23;20415;-82
2022/08/12 05:00:38;;;;;;;16.73;10.30;;;14.10;52.50;;;;;;6223594;23;20412;-83
2022/08/12 05:03:06;;;;;;;13.93;11.10;;;14.10;53.40;;;;;;6222720;23;20432;-82
2022/08/12 05:05:35;;;;;;;12.20;10.40;;;14.20;54.60;;;;;;6222152;23;20419;-82
2022/08/12 05:08:02;;;;;;;14.80;11.83;;;14.30;54.80;;;;;;6222402;23;20462;-82
2022/08/12 05:10:30;;;;;;;18.83;11.50;;;14.30;54.20;;;;;;6223324;23;20419;-82
2022/08/12 05:13:00;;;;;;;13.13;11.77;;;14.50;54.40;;;;;;6222534;23;20821;-82
2022/08/12 05:15:27;;;;;;;12.23;10.30;;;14.50;54.30;;;;;;6222953;23;20471;-82
2022/08/12 05:17:55;;;;;;;20.23;11.87;;;14.70;55.40;;;;;;6223222;23;20412;-81
2022/08/12 05:20:24;;;;;;;15.53;11.57;;;14.80;54.70;;;;;;6223888;23;20424;-84
2022/08/12 05:22:51;;;;;;;19.70;11.07;;;14.90;54.70;;;;;;6223954;23;20415;-84
2022/08/12 05:25:19;;;;;;;13.20;10.33;;;14.90;52.60;;;;;;6223663;23;21011;-86
2022/08/12 05:27:47;;;;;;;15.07;11.27;;;14.90;51.60;;;;;;6223967;23;20754;-84
2022/08/12 05:30:14;;;;;;;13.10;10.97;;;15.10;52.70;;;;;;6233909;23;20422;-84
2022/08/12 05:32:40;;;;;;;11.70;9.60;;;15.30;51.30;;;;;;6223115;23;20436;-85
2022/08/12 05:35:09;;;;;;;15.53;10.17;;;15.80;50.20;;;;;;6225115;23;20412;-85
2022/08/12 05:37:36;;;;;;;16.23;9.37;;;16.30;49.80;;;;;;6234062;23;20437;-85
2022/08/12 05:40:04;;;;;;;15.93;10.27;;;16.90;45.80;;;;;;6225581;23;20418;-85
2022/08/12 05:42:32;;;;;;;11.37;8.23;;;17.50;43.40;;;;;;6224384;23;20801;-85
2022/08/12 05:45:00;;;;;;;12.70;9.37;;;18.10;40.80;;;;;;6224997;23;20414;-86
2022/08/12 05:47:27;;;;;;;11.13;8.50;;;18.70;39.90;;;;;;6227676;23;20502;-85
2022/08/12 05:49:54;;;;;;;12.47;8.20;;;19.20;36.60;;;;;;6226410;23;20411;-85
2022/08/12 05:52:21;;;;;;;11.17;8.00;;;19.70;35.00;;;;;;6228102;23;20437;-85
2022/08/12 05:54:48;;;;;;;13.50;7.83;;;20.20;35.50;;;;;;6225698;23;20915;-85
2022/08/12 05:57:14;;;;;;;11.93;8.67;;;20.70;31.80;;;;;;6235988;23;20409;-86
2022/08/12 05:59:41;;;;;;;13.17;7.63;;;21.00;30.00;;;;;;6222940;23;20418;-86
2022/08/12 06:02:10;;;;;;;11.10;8.00;;;21.40;26.30;;;;;;6222756;23;20437;-85
2022/08/12 06:04:38;;;;;;;10.40;7.30;;;21.90;25.50;;;;;;6225825;23;21014;-85
2022/08/12 06:07:06;;;;;;;9.93;7.20;;;22.30;24.00;;;;;;6217660;23;20416;-86
2022/08/12 06:09:33;;;;;;;21.63;7.83;;;22.60;21.10;;;;;;6225402;23;20448;-86
2022/08/12 06:12:27;;;;;;;15.43;6.23;;;22.90;19.90;;;;;;6222772;23;20447;-87
2022/08/12 06:18:06;;;;;;;9.20;6.90;;;23.30;18.10;;;;;;6200488;23;20400;-87
2022/08/12 06:20:33;;;;;;;10.97;6.90;;;23.70;13.70;;;;;;6226022;23;20723;-87
2022/08/12 06:23:01;;;;;;;11.30;7.13;;;23.70;12.60;;;;;;6216481;23;20495;-87
2022/08/12 06:25:29;;;;;;;11.43;7.37;;;23.90;10.00;;;;;;6216021;23;20416;-87
2022/08/12 06:27:57;;;;;;;11.77;7.40;;;24.00;10.80;;;;;;6226299;23;20484;-87
2022/08/12 06:30:43;;;;;;;9.70;6.43;;;24.00;11.30;;;;;;6215264;23;20397;-87
2022/08/12 06:36:40;;;;;;;8.73;6.90;;;24.10;12.00;;;;;;6061384;23;20418;-86
2022/08/12 06:39:07;;;;;;;12.37;6.57;;;24.00;10.70;;;;;;6200397;23;20412;-88
2022/08/12 06:44:19;;;;;;;12.80;6.77;;;23.70;11.40;;;;;;6215412;23;20474;-87
2022/08/12 06:46:46;;;;;;;12.47;7.30;;;23.40;14.60;;;;;;6225292;23;20423;-87
2022/08/12 06:49:15;;;;;;;11.97;5.80;;;23.30;15.00;;;;;;6215482;23;20387;-87
2022/08/12 06:51:44;;;;;;;12.97;6.30;;;23.30;11.40;;;;;;6224467;23;20987;-86
2022/08/12 06:54:11;;;;;;;11.03;6.20;;;23.20;12.10;;;;;;6227988;23;20497;-86
2022/08/12 06:56:38;;;;;;;10.10;7.07;;;23.20;10.10;;;;;;6226902;23;20408;-85
2022/08/12 06:59:05;;;;;;;14.50;7.70;;;23.10;8.20;;;;;;6229690;23;20418;-85
2022/08/12 07:01:31;;;;;;;12.50;7.63;;;23.10;6.80;;;;;;6228667;23;20429;-86
2022/08/12 07:03:58;;;;;;;12.73;6.53;;;23.10;6.80;;;;;;6228043;23;20431;-85
2022/08/12 07:06:25;;;;;;;17.63;7.50;;;23.00;6.10;;;;;;6228313;23;20475;-86
2022/08/12 07:08:53;;;;;;;12.30;6.70;;;23.10;5.90;;;;;;6228620;23;20436;-85
2022/08/12 07:11:20;;;;;;;14.90;6.73;;;23.20;5.90;;;;;;6229109;23;20807;-86
2022/08/12 07:13:51;;;;;;;15.23;6.57;;;23.20;3.90;;;;;;6228775;23;20432;-86
2022/08/12 07:16:21;;;;;;;17.13;8.60;;;23.30;6.40;;;;;;6230761;23;20434;-85
2022/08/12 07:18:50;;;;;;;15.57;7.13;;;23.50;4.10;;;;;;6228520;23;20419;-86
2022/08/12 07:21:18;;;;;;;16.03;8.20;;;23.50;3.90;;;;;;6229080;23;20444;-85
2022/08/12 07:23:45;;;;;;;20.60;7.43;;;23.70;4.80;;;;;;6228738;23;20431;-85
2022/08/12 07:26:15;;;;;;;16.60;8.43;;;23.80;2.50;;;;;;6230799;23;20410;-85
2022/08/12 07:28:44;;;;;;;13.67;7.40;;;23.80;1.70;;;;;;6230499;23;20416;-85
2022/08/12 07:31:11;;;;;;;12.93;6.40;;;24.00;1.60;;;;;;6229501;23;20752;-85
2022/08/12 07:33:40;;;;;;;17.73;8.00;;;24.00;1.50;;;;;;6230121;23;20424;-86
2022/08/12 07:36:09;;;;;;;15.10;5.57;;;24.10;1.00;;;;;;6223955;23;20418;-86
2022/08/12 07:38:41;;;;;;;14.47;5.77;;;24.30;1.00;;;;;;6216720;23;20491;-85
2022/08/12 07:41:10;;;;;;;10.63;5.70;;;24.40;1.00;;;;;;6216108;23;20435;-86
2022/08/12 07:43:47;;;;;;;12.70;4.50;;;24.50;1.00;;;;;;6224042;23;20978;-86
2022/08/12 07:46:18;;;;;;;14.53;5.50;;;24.70;1.00;;;;;;6215803;23;20399;-86
2022/08/12 07:48:48;;;;;;;9.90;4.70;;;24.70;1.00;;;;;;6224452;23;20404;-86
2022/08/12 07:51:16;;;;;;;6.83;3.93;;;24.90;1.00;;;;;;6214826;23;20464;-86
2022/08/12 07:53:42;;;;;;;11.90;4.53;;;24.90;1.00;;;;;;6224309;23;20442;-88
2022/08/12 07:56:10;;;;;;;11.30;4.13;;;25.00;1.00;;;;;;6214458;23;20415;-86
2022/08/12 07:58:40;;;;;;;8.90;4.73;;;25.10;1.00;;;;;;6215077;23;20971;-86
2022/08/12 08:01:09;;;;;;;12.97;4.07;;;25.40;1.00;;;;;;6214984;23;20502;-86
2022/08/12 08:03:36;;;;;;;6.43;3.20;;;25.60;1.00;;;;;;6224749;23;20935;-86
2022/08/12 08:06:03;;;;;;;12.40;3.00;;;25.90;1.00;;;;;;6215337;23;20418;-86
2022/08/12 08:08:30;;;;;;;9.10;3.20;;;26.40;1.00;;;;;;6214886;23;20416;-87
2022/08/12 08:13:41;;;;;;;8.13;3.27;;;27.40;1.00;;;;;;6212538;23;20424;-86
2022/08/12 08:16:08;;;;;;;10.03;3.17;;;27.60;1.00;;;;;;6214233;23;20388;-86
2022/08/12 08:18:36;;;;;;;9.50;2.90;;;28.00;1.00;;;;;;6214709;23;20412;-87
2022/08/12 08:21:04;;;;;;;8.27;2.90;;;28.20;1.00;;;;;;6224690;23;20442;-87
2022/08/12 08:26:14;;;;;;;7.43;3.00;;;28.70;1.00;;;;;;6212978;23;20478;-86
2022/08/12 08:28:42;;;;;;;6.77;2.90;;;28.90;1.00;;;;;;6214287;23;20416;-87
2022/08/12 08:31:09;;;;;;;5.67;2.80;;;29.10;1.00;;;;;;6214374;23;20382;-87
2022/08/12 08:33:36;;;;;;;6.03;2.70;;;29.30;1.00;;;;;;6217009;23;20566;-86
2022/08/12 08:36:05;;;;;;;5.50;2.30;;;29.60;1.00;;;;;;6226167;23;20386;-86
2022/08/12 08:38:32;;;;;;;7.30;2.90;;;29.70;1.00;;;;;;6216760;23;20748;-87
2022/08/12 08:44:00;;;;;;;10.77;3.40;;;30.10;1.00;;;;;;6123480;23;20945;-87
2022/08/12 08:47:21;;;;;;;8.33;2.93;;;30.60;1.00;;;;;;6134966;23;20393;-89
2022/08/12 08:49:59;;;;;;;5.50;2.40;;;30.80;1.00;;;;;;6199453;23;20502;-85
2022/08/12 08:52:32;;;;;;;9.27;2.20;;;30.70;1.00;;;;;;6231529;23;20366;-85
2022/08/12 08:54:59;;;;;;;6.20;2.47;;;30.80;1.00;;;;;;6231813;23;20420;-85
2022/08/12 08:57:26;;;;;;;7.57;2.70;;;31.10;1.00;;;;;;6224252;23;20394;-86
2022/08/12 08:59:59;;;;;;;14.50;2.80;;;31.50;1.00;;;;;;6223196;23;20411;-86
2022/08/12 09:02:27;;;;;;;8.40;3.37;;;31.60;1.00;;;;;;6220182;23;20951;-86
2022/08/12 09:04:58;;;;;;;7.13;3.10;;;31.50;1.00;;;;;;6230510;23;20422;-86
2022/08/12 09:07:30;;;;;;;5.43;2.50;;;31.70;1.00;;;;;;6222534;23;20398;-86
2022/08/12 09:09:57;;;;;;;10.90;3.20;;;31.70;1.00;;;;;;6220594;23;20459;-86
2022/08/12 09:15:30;;;;;;;9.60;2.80;;;32.30;1.00;;;;;;6217087;23;20411;-86
2022/08/12 09:18:07;;;;;;;6.97;2.70;;;32.90;1.00;;;;;;6227029;23;20396;-86
2022/08/12 09:20:38;;;;;;;5.07;2.50;;;32.80;1.00;;;;;;6226930;23;20392;-86
2022/08/12 09:23:06;;;;;;;8.00;2.33;;;32.80;1.00;;;;;;6216287;23;20419;-86
2022/08/12 09:25:34;;;;;;;7.00;2.50;;;33.10;1.00;;;;;;6216341;23;20407;-86
2022/08/12 09:28:07;;;;;;;6.33;2.63;;;33.10;1.00;;;;;;6216126;23;20395;-86
2022/08/12 09:30:49;;;;;;;8.07;2.50;;;33.20;1.00;;;;;;6226556;23;20755;-87
2022/08/12 09:33:18;;;;;;;4.80;2.00;;;33.20;1.00;;;;;;6226929;23;20439;-85
2022/08/12 09:35:51;;;;;;;9.87;2.70;;;33.50;1.00;;;;;;6218704;23;20418;-86
2022/08/12 09:38:19;;;;;;;6.13;2.70;;;33.70;1.00;;;;;;6226928;23;20430;-86
2022/08/12 09:40:46;;;;;;;6.40;2.50;;;33.90;1.00;;;;;;6226451;23;20387;-87
2022/08/12 09:46:03;;;;;;;9.30;2.77;;;34.20;1.00;;;;;;6216996;23;20362;-86
2022/08/12 09:48:31;;;;;;;5.70;2.50;;;33.90;1.00;;;;;;6216766;23;20795;-86
2022/08/12 09:51:00;;;;;;;8.77;2.90;;;34.10;1.00;;;;;;6216815;23;20774;-86
2022/08/12 09:53:27;;;;;;;4.97;2.43;;;34.10;1.00;;;;;;6217778;23;20421;-86
2022/08/12 09:55:55;;;;;;;9.30;2.67;;;34.40;1.00;;;;;;6227497;23;20387;-84
2022/08/12 09:58:27;;;;;;;7.73;2.80;;;34.00;1.00;;;;;;6216191;23;20421;-87
2022/08/12 10:01:00;;;;;;;7.90;2.27;;;33.80;1.00;;;;;;6225581;23;20404;-87
2022/08/12 10:03:30;;;;;;;9.20;2.80;;;34.20;1.00;;;;;;6225380;23;20430;-87
2022/08/12 10:06:07;;;;;;;4.80;2.40;;;34.10;1.00;;;;;;6224969;23;20413;-87
2022/08/12 10:08:35;;;;;;;7.20;2.40;;;34.70;1.00;;;;;;6224910;23;20915;-87
2022/08/12 10:13:51;;;;;;;8.40;2.43;;;35.00;1.00;;;;;;6225253;23;20471;-87
2022/08/12 10:16:20;;;;;;;6.00;2.30;;;35.00;1.00;;;;;;6225660;23;20929;-87
2022/08/12 10:18:52;;;;;;;6.57;2.23;;;34.70;1.00;;;;;;6214917;23;20964;-87
2022/08/12 10:21:21;;;;;;;4.90;2.20;;;34.60;1.00;;;;;;6225308;23;20393;-87
2022/08/12 10:23:50;;;;;;;8.53;2.70;;;34.80;1.00;;;;;;6225577;23;20848;-87
2022/08/12 10:31:50;;;;;;;5.43;2.20;;;34.70;1.00;;;;;;6218019;23;20401;-86
2022/08/12 10:34:21;;;;;;;10.23;2.40;;;34.90;1.00;;;;;;6218920;23;20419;-86
2022/08/12 10:36:49;;;;;;;5.50;2.13;;;35.20;1.00;;;;;;6229781;23;20470;-86
2022/08/12 10:39:19;;;;;;;4.70;2.17;;;35.30;1.00;;;;;;6229076;23;20447;-87
2022/08/12 10:44:40;;;;;;;5.40;2.10;;;34.60;1.00;;;;;;6165135;23;20450;-86
2022/08/12 10:47:07;;;;;;;6.70;2.30;;;34.50;1.00;;;;;;6221746;23;20757;-86
2022/08/12 10:49:35;;;;;;;12.63;2.70;;;34.40;1.00;;;;;;6220013;23;20857;-86
2022/08/12 10:52:03;;;;;;;6.53;2.40;;;34.50;1.00;;;;;;6218958;23;20438;-87
2022/08/12 10:54:29;;;;;;;8.90;2.73;;;35.10;1.00;;;;;;6216160;23;20429;-86
2022/08/12 10:56:59;;;;;;;6.60;3.50;;;35.10;1.00;;;;;;6217770;23;20434;-86
2022/08/12 10:59:27;;;;;;;6.10;2.20;;;35.40;1.00;;;;;;6229304;23;20443;-86
2022/08/12 11:01:55;;;;;;;5.20;2.77;;;35.40;1.00;;;;;;6221650;23;20439;-86
2022/08/12 11:04:28;;;;;;;11.07;3.33;;;34.90;1.00;;;;;;6221631;23;20428;-86
2022/08/12 11:06:57;;;;;;;6.83;2.60;;;35.10;1.00;;;;;;6219969;23;20375;-87
2022/08/12 11:09:29;;;;;;;5.50;1.90;;;34.50;1.00;;;;;;6220507;23;20393;-86
2022/08/12 11:11:58;;;;;;;6.07;2.37;;;35.30;1.00;;;;;;6219356;23;20379;-86
2022/08/12 11:14:31;;;;;;;13.87;2.23;;;36.20;1.00;;;;;;6227428;23;20473;-86
2022/08/12 11:17:00;;;;;;;5.73;2.40;;;36.90;1.00;;;;;;6216092;23;20401;-87
2022/08/12 11:19:29;;;;;;;7.10;2.60;;;37.60;1.00;;;;;;6216610;23;20503;-87
2022/08/12 11:21:58;;;;;;;7.33;2.33;;;37.20;1.00;;;;;;6227145;23;20400;-86
2022/08/12 11:24:25;;;;;;;4.70;1.70;;;36.30;1.00;;;;;;6217335;23;20727;-87
2022/08/12 11:26:53;;;;;;;6.10;2.30;;;36.20;1.00;;;;;;6218361;23;20393;-86
2022/08/12 11:29:22;;;;;;;5.57;2.10;;;35.70;1.00;;;;;;6219458;23;20393;-86
2022/08/12 11:31:49;;;;;;;5.00;2.10;;;35.70;1.00;;;;;;6219691;23;20383;-86
2022/08/12 11:34:17;;;;;;;6.67;2.10;;;35.70;1.00;;;;;;6225652;23;20431;-87
2022/08/12 11:36:49;;;;;;;5.10;2.20;;;35.80;1.00;;;;;;6216102;23;20393;-86
2022/08/12 11:39:18;;;;;;;6.67;1.97;;;35.60;1.00;;;;;;6216214;23;20938;-86
2022/08/12 11:41:45;;;;;;;6.80;2.40;;;35.90;1.00;;;;;;6216736;23;20386;-86
2022/08/12 11:44:12;;;;;;;4.73;2.00;;;36.00;1.00;;;;;;6215255;23;20435;-87
2022/08/12 11:46:40;;;;;;;5.30;2.00;;;36.10;1.00;;;;;;6216855;23;20412;-87
2022/08/12 11:49:07;;;;;;;4.70;2.10;;;36.10;1.00;;;;;;6215595;23;20419;-86
2022/08/12 11:51:35;;;;;;;6.60;2.50;;;35.70;1.00;;;;;;6215165;23;20928;-86
2022/08/12 11:54:02;;;;;;;8.30;2.30;;;35.90;1.00;;;;;;6215340;23;20447;-86
2022/08/12 11:56:30;;;;;;;5.47;2.27;;;35.30;1.00;;;;;;6215092;23;20955;-87
2022/08/12 11:58:57;;;;;;;5.10;2.20;;;35.20;1.00;;;;;;6215925;23;20416;-86
2022/08/12 12:01:26;;;;;;;9.80;2.50;;;35.30;1.00;;;;;;6231250;23;20721;-86
2022/08/12 12:03:52;;;;;;;7.00;2.20;;;35.30;1.00;;;;;;6222472;23;20402;-85
2022/08/12 12:06:20;;;;;;;8.07;3.77;;;35.70;1.00;;;;;;6222353;23;20722;-86
2022/08/12 12:08:48;;;;;;;9.60;1.90;;;35.90;1.00;;;;;;6220934;23;20437;-86
2022/08/12 12:11:15;;;;;;;6.03;1.93;;;36.10;1.00;;;;;;6235463;23;20507;-86
2022/08/12 12:13:43;;;;;;;4.70;2.00;;;36.60;1.00;;;;;;6222819;23;20735;-86
2022/08/12 12:16:10;;;;;;;6.67;2.27;;;36.20;1.00;;;;;;6220577;23;20412;-86
2022/08/12 12:18:36;;;;;;;6.37;1.93;;;35.90;1.00;;;;;;6223551;23;20428;-86
2022/08/12 12:21:05;;;;;;;4.90;1.80;;;36.40;1.00;;;;;;6223978;23;20412;-86
2022/08/12 12:23:33;;;;;;;5.60;2.17;;;35.90;1.00;;;;;;6222036;23;20428;-86
2022/08/12 12:26:00;;;;;;;4.90;2.33;;;35.90;1.00;;;;;;6223012;23;20415;-86
2022/08/12 12:28:27;;;;;;;5.00;2.17;;;36.40;1.00;;;;;;6225495;23;20411;-86
2022/08/12 12:30:55;;;;;;;5.30;2.00;;;37.20;1.00;;;;;;6221080;23;20928;-86
2022/08/12 12:33:21;;;;;;;5.57;2.53;;;37.20;1.00;;;;;;6219385;23;20765;-86
2022/08/12 12:35:48;;;;;;;6.00;1.80;;;36.10;1.00;;;;;;6221274;23;20798;-87
2022/08/12 12:38:16;;;;;;;6.63;1.90;;;36.80;1.00;;;;;;6219366;23;20418;-87
2022/08/12 12:40:44;;;;;;;4.83;1.90;;;36.50;1.00;;;;;;6220751;23;20392;-87
2022/08/12 12:43:11;;;;;;;5.20;2.33;;;36.60;1.00;;;;;;6220666;23;20438;-87
2022/08/12 12:45:39;;;;;;;5.77;2.20;;;37.60;1.00;;;;;;6219069;23;20717;-87
2022/08/12 12:48:09;;;;;;;10.50;2.17;;;38.10;1.00;;;;;;6219754;23;20387;-86
2022/08/12 12:50:38;;;;;;;5.40;2.20;;;37.40;1.00;;;;;;6217824;23;20419;-87
2022/08/12 12:53:05;;;;;;;4.60;2.13;;;37.40;1.00;;;;;;6217161;23;20438;-87
2022/08/12 12:55:34;;;;;;;4.20;1.67;;;37.90;1.00;;;;;;6217917;23;20412;-87
2022/08/12 12:58:03;;;;;;;5.63;1.83;;;38.70;1.00;;;;;;6218206;23;20415;-86
2022/08/12 13:00:31;;;;;;;10.60;2.13;;;39.20;1.00;;;;;;6217202;23;20418;-87
2022/08/12 13:02:58;;;;;;;6.00;1.80;;;39.40;1.00;;;;;;6217326;23;20438;-86
2022/08/12 13:05:28;;;;;;;6.07;2.10;;;39.70;1.00;;;;;;6220160;23;20387;-87
2022/08/12 13:07:59;;;;;;;7.17;1.87;;;39.10;1.00;;;;;;6219876;23;20428;-87
2022/08/12 13:10:29;;;;;;;5.00;1.80;;;39.60;1.00;;;;;;6217193;23;20370;-86
2022/08/12 13:12:55;;;;;;;8.37;2.37;;;39.30;1.00;;;;;;6217364;23;20436;-87
2022/08/12 13:15:23;;;;;;;5.10;1.90;;;39.20;1.00;;;;;;6217326;23;20417;-87
2022/08/12 13:17:54;;;;;;;8.50;2.10;;;39.90;1.00;;;;;;6216101;23;20885;-87
2022/08/12 13:20:22;;;;;;;6.17;2.20;;;39.30;1.00;;;;;;6217118;23;20789;-87
2022/08/12 13:22:53;;;;;;;6.30;2.10;;;38.50;1.00;;;;;;6218786;23;20433;-86
2022/08/12 13:25:23;;;;;;;8.40;2.30;;;38.90;1.00;;;;;;6216755;23;20367;-89
2022/08/12 13:27:50;;;;;;;5.53;1.80;;;37.80;1.00;;;;;;6213792;23;20393;-91
2022/08/12 13:30:22;;;;;;;5.67;2.23;;;37.50;1.00;;;;;;6215667;23;20387;-89
2022/08/12 13:32:54;;;;;;;4.50;2.10;;;37.50;1.00;;;;;;6225336;23;20392;-88
2022/08/12 13:35:21;;;;;;;5.23;2.10;;;37.30;1.00;;;;;;6214345;23;20933;-88
2022/08/12 13:37:54;;;;;;;8.47;1.97;;;38.20;1.00;;;;;;6214734;23;20412;-87
2022/08/12 13:40:30;;;;;;;5.23;2.03;;;38.60;1.00;;;;;;6224942;23;20937;-88
2022/08/12 13:42:57;;;;;;;6.40;1.70;;;39.50;1.00;;;;;;6215099;23;20406;-88
2022/08/12 13:45:24;;;;;;;5.77;1.80;;;40.40;1.00;;;;;;6215672;23;20416;-88
2022/08/12 13:47:55;;;;;;;5.63;2.10;;;39.60;1.00;;;;;;6215618;23;20408;-88
2022/08/12 13:50:28;;;;;;;4.73;1.73;;;39.90;1.00;;;;;;6215835;23;20480;-87
2022/08/12 13:52:56;;;;;;;7.23;1.93;;;40.50;1.00;;;;;;6216007;23;20410;-88
2022/08/12 13:55:24;;;;;;;4.50;1.60;;;39.90;1.00;;;;;;6215128;23;20435;-88
2022/08/12 13:57:52;;;;;;;7.27;2.50;;;40.40;1.00;;;;;;6225543;23;20498;-88
2022/08/12 14:00:25;;;;;;;12.30;2.10;;;40.90;1.00;;;;;;6225721;23;20756;-87
2022/08/12 14:02:52;;;;;;;6.13;1.90;;;41.30;1.00;;;;;;6225288;23;20389;-87
2022/08/12 14:05:19;;;;;;;5.53;1.60;;;40.70;1.00;;;;;;6215157;23;20407;-88
2022/08/12 14:08:00;;;;;;;5.33;1.87;;;40.60;1.00;;;;;;6216133;23;20386;-87
2022/08/12 14:10:47;;;;;;;5.17;1.83;;;39.70;1.00;;;;;;6215642;23;20414;-88
2022/08/12 14:13:16;;;;;;;4.60;2.07;;;39.50;1.00;;;;;;6225630;23;20434;-87
2022/08/12 14:15:46;;;;;;;4.50;1.73;;;38.00;1.00;;;;;;6225727;23;20944;-87
2022/08/12 14:18:17;;;;;;;5.10;2.23;;;37.70;1.00;;;;;;6215475;23;20758;-89
2022/08/12 14:20:47;;;;;;;5.10;1.80;;;37.80;1.00;;;;;;6225390;23;20412;-87
2022/08/12 14:23:16;;;;;;;4.93;2.07;;;39.20;1.00;;;;;;6215336;23;20432;-87
2022/08/12 14:25:43;;;;;;;5.30;2.40;;;39.70;1.00;;;;;;6214922;23;20407;-88
2022/08/12 14:28:14;;;;;;;4.80;1.97;;;38.90;1.00;;;;;;6215223;23;20411;-88
2022/08/12 14:30:46;;;;;;;5.60;1.83;;;39.60;1.00;;;;;;6214937;23;20404;-89
2022/08/12 14:33:18;;;;;;;8.00;2.00;;;39.50;1.00;;;;;;6215252;23;20514;-88
2022/08/12 14:35:45;;;;;;;5.87;2.00;;;40.50;1.00;;;;;;6225254;23;20414;-87
2022/08/12 14:38:22;;;;;;;5.30;2.23;;;39.80;1.00;;;;;;6215813;23;20478;-87
2022/08/12 14:40:51;;;;;;;5.50;1.80;;;38.90;1.00;;;;;;6215701;23;20396;-88
2022/08/12 14:43:19;;;;;;;5.10;1.83;;;38.30;1.00;;;;;;6225715;23;20844;-88
2022/08/12 14:45:47;;;;;;;5.20;1.80;;;37.90;1.00;;;;;;6225627;23;20470;-88
2022/08/12 14:48:17;;;;;;;5.40;1.83;;;38.40;1.00;;;;;;6225421;23;20419;-88
2022/08/12 14:50:44;;;;;;;4.60;1.67;;;38.00;1.00;;;;;;6225156;23;20390;-88
2022/08/12 14:53:13;;;;;;;6.77;1.80;;;38.60;1.00;;;;;;6224724;23;20428;-88
2022/08/12 14:55:43;;;;;;;5.40;1.90;;;39.70;1.00;;;;;;6214740;23;20417;-87
2022/08/12 14:58:12;;;;;;;9.03;2.30;;;40.20;1.00;;;;;;6225788;23;20411;-88